createdAt,value
2023-05-06T00:01:34.198Z,57.93
2023-05-06T00:04:00.985Z,58.17
2023-05-06T00:06:28.948Z,58.42
2023-05-06T00:08:55.443Z,58.21
2023-05-06T00:11:21.951Z,58.28
2023-05-06T00:13:48.549Z,58.15
2023-05-06T00:16:15.320Z,58.68
2023-05-06T00:18:42.086Z,58.51
2023-05-06T00:21:08.705Z,58.54
2023-05-06T00:23:35.202Z,58.48
2023-05-06T00:26:01.660Z,58.47
2023-05-06T00:28:28.162Z,58.39
2023-05-06T00:30:54.683Z,58.77
2023-05-06T00:33:21.267Z,58.64
2023-05-06T00:35:48.243Z,58.80
2023-05-06T00:38:17.857Z,58.79
2023-05-06T00:40:44.334Z,58.62
2023-05-06T00:43:10.942Z,58.79
2023-05-06T00:45:38.587Z,59.02
2023-05-06T00:48:05.534Z,58.81
2023-05-06T00:50:34.491Z,58.68
2023-05-06T00:53:03.369Z,59.05
2023-05-06T00:55:30.927Z,58.95
2023-05-06T00:57:58.202Z,58.81
2023-05-06T01:00:24.792Z,58.89
2023-05-06T01:02:51.406Z,59.06
2023-05-06T01:05:22.268Z,59.10
2023-05-06T01:08:13.057Z,59.08
2023-05-06T01:10:49.951Z,59.22
2023-05-06T01:14:04.113Z,59.10
2023-05-06T01:16:36.485Z,59.41
2023-05-06T01:19:08.906Z,59.22
2023-05-06T01:21:36.188Z,59.12
2023-05-06T01:24:02.669Z,59.14
2023-05-06T01:26:29.160Z,59.11
2023-05-06T01:28:57.058Z,59.19
2023-05-06T01:31:36.786Z,59.35
2023-05-06T01:34:15.402Z,59.27
2023-05-06T01:36:57.649Z,59.53
2023-05-06T01:39:30.792Z,59.46
2023-05-06T01:42:00.345Z,59.29
2023-05-06T01:44:31.894Z,59.41
2023-05-06T01:46:58.452Z,59.38
2023-05-06T01:49:26.332Z,59.33
2023-05-06T01:51:53.718Z,59.51
2023-05-06T01:54:20.452Z,59.71
2023-05-06T01:56:47.147Z,59.60
2023-05-06T01:59:13.644Z,59.43
2023-05-06T02:01:40.171Z,59.50
2023-05-06T02:04:06.718Z,59.52
2023-05-06T02:06:33.357Z,59.47
2023-05-06T02:08:59.883Z,59.20
2023-05-06T02:11:26.408Z,59.34
2023-05-06T02:13:52.880Z,59.15
2023-05-06T02:16:19.507Z,59.17
2023-05-06T02:18:46.046Z,58.98
2023-05-06T02:21:12.531Z,59.13
2023-05-06T02:23:39.030Z,58.82
2023-05-06T02:26:05.649Z,58.70
2023-05-06T02:28:32.139Z,59.03
2023-05-06T02:30:58.994Z,58.81
2023-05-06T02:33:26.117Z,58.74
2023-05-06T02:35:52.582Z,58.47
2023-05-06T02:38:19.637Z,58.85
2023-05-06T02:40:46.139Z,58.83
2023-05-06T02:43:12.697Z,59.02
2023-05-06T02:45:39.345Z,58.83
2023-05-06T02:48:06.305Z,59.09
2023-05-06T02:50:33.828Z,59.12
2023-05-06T02:53:00.384Z,59.21
2023-05-06T02:55:26.926Z,59.14
2023-05-06T02:57:53.392Z,58.97
2023-05-06T03:00:20.167Z,59.00
2023-05-06T03:02:47.160Z,59.04
2023-05-06T03:05:13.724Z,59.41
2023-05-06T03:07:40.201Z,59.23
2023-05-06T03:10:07.353Z,59.31
2023-05-06T03:12:33.913Z,59.25
2023-05-06T03:15:00.543Z,59.48
2023-05-06T03:17:27.040Z,59.59
2023-05-06T03:19:53.555Z,59.43
2023-05-06T03:22:20.064Z,59.43
2023-05-06T03:24:46.557Z,59.32
2023-05-06T03:27:13.090Z,59.35
2023-05-06T03:29:39.569Z,59.36
2023-05-06T03:32:06.542Z,59.38
2023-05-06T03:34:33.249Z,59.76
2023-05-06T03:37:00.242Z,59.41
2023-05-06T03:39:26.765Z,59.36
2023-05-06T03:41:53.248Z,59.74
2023-05-06T03:44:19.745Z,59.61
2023-05-06T03:46:46.218Z,59.60
2023-05-06T03:49:12.968Z,59.51
2023-05-06T03:51:39.467Z,59.60
2023-05-06T03:54:06.240Z,59.84
2023-05-06T03:56:32.756Z,59.83
2023-05-06T03:58:59.274Z,59.75
2023-05-06T04:01:25.767Z,59.88
2023-05-06T04:03:54.404Z,59.87
2023-05-06T04:06:21.004Z,59.86
2023-05-06T04:08:47.577Z,59.70
2023-05-06T04:11:14.390Z,59.86
2023-05-06T04:13:40.888Z,59.91
2023-05-06T04:16:07.657Z,59.81
2023-05-06T04:18:34.363Z,60.03
2023-05-06T04:21:00.945Z,59.80
2023-05-06T04:23:27.538Z,59.88
2023-05-06T04:25:54.035Z,60.07
2023-05-06T04:28:20.709Z,60.01
2023-05-06T04:30:47.208Z,59.89
2023-05-06T04:33:13.800Z,59.92
2023-05-06T04:35:41.116Z,59.78
2023-05-06T04:38:07.637Z,59.59
2023-05-06T04:40:36.545Z,59.91
2023-05-06T04:43:03.095Z,59.80
2023-05-06T04:45:29.927Z,59.76
2023-05-06T04:47:56.654Z,59.88
2023-05-06T04:50:23.245Z,59.71
2023-05-06T04:52:49.783Z,59.99
2023-05-06T04:55:16.362Z,59.76
2023-05-06T04:57:42.917Z,59.55
2023-05-06T05:00:10.663Z,59.81
2023-05-06T05:02:37.626Z,59.55
2023-05-06T05:05:04.430Z,59.51
2023-05-06T05:07:31.008Z,59.68
2023-05-06T05:09:57.527Z,59.54
2023-05-06T05:12:24.032Z,59.72
2023-05-06T05:14:51.216Z,59.66
2023-05-06T05:17:17.760Z,59.79
2023-05-06T05:19:44.314Z,59.89
2023-05-06T05:22:11.163Z,59.94
2023-05-06T05:24:37.699Z,60.08
2023-05-06T05:27:04.258Z,60.03
2023-05-06T05:29:30.901Z,60.13
2023-05-06T05:31:57.372Z,60.05
2023-05-06T05:34:23.940Z,60.24
2023-05-06T05:36:50.473Z,59.99
2023-05-06T05:39:16.969Z,59.93
2023-05-06T05:41:43.470Z,60.44
2023-05-06T05:44:10.102Z,60.54
2023-05-06T05:46:36.862Z,60.57
2023-05-06T05:49:03.674Z,60.43
2023-05-06T05:51:31.000Z,60.72
2023-05-06T05:53:57.587Z,60.60
2023-05-06T05:56:24.071Z,60.65
2023-05-06T05:58:50.603Z,60.71
2023-05-06T06:01:17.758Z,60.77
2023-05-06T06:03:44.555Z,60.89
2023-05-06T06:06:11.587Z,60.98
2023-05-06T06:08:38.148Z,61.33
2023-05-06T06:11:05.842Z,61.86
2023-05-06T06:13:32.400Z,62.26
2023-05-06T06:15:59.197Z,61.63
2023-05-06T06:18:25.834Z,61.87
2023-05-06T06:20:53.429Z,61.52
2023-05-06T06:23:20.978Z,61.35
2023-05-06T06:25:47.530Z,61.40
2023-05-06T06:28:14.049Z,61.15
2023-05-06T06:30:41.388Z,61.28
2023-05-06T06:33:07.944Z,61.18
2023-05-06T06:35:34.896Z,61.05
2023-05-06T06:38:01.622Z,61.21
2023-05-06T06:40:28.245Z,60.89
2023-05-06T06:42:54.840Z,61.00
2023-05-06T06:45:22.205Z,61.03
2023-05-06T06:47:48.832Z,61.36
2023-05-06T06:50:15.511Z,61.24
2023-05-06T06:52:41.986Z,60.83
2023-05-06T06:55:09.369Z,60.69
2023-05-06T06:57:38.072Z,60.88
2023-05-06T07:00:05.148Z,60.72
2023-05-06T07:02:31.727Z,60.48
2023-05-06T07:04:58.252Z,60.24
2023-05-06T07:07:24.810Z,60.04
2023-05-06T07:09:51.294Z,59.77
2023-05-06T07:12:17.778Z,59.67
2023-05-06T07:14:44.264Z,59.89
2023-05-06T07:17:10.936Z,60.01
2023-05-06T07:19:37.444Z,60.44
2023-05-06T07:22:04.005Z,60.66
2023-05-06T07:24:30.573Z,60.75
2023-05-06T07:26:57.738Z,60.75
2023-05-06T07:29:24.335Z,60.66
2023-05-06T07:31:51.229Z,60.31
2023-05-06T07:34:17.721Z,60.44
2023-05-06T07:36:45.102Z,60.34
2023-05-06T07:39:12.480Z,60.40
2023-05-06T07:41:39.025Z,60.58
2023-05-06T07:44:06.293Z,60.39
2023-05-06T07:46:33.350Z,60.42
2023-05-06T07:49:00.112Z,60.38
2023-05-06T07:51:27.360Z,60.23
2023-05-06T07:53:53.962Z,60.06
2023-05-06T07:56:20.684Z,59.75
2023-05-06T07:58:49.100Z,59.64
2023-05-06T08:01:16.301Z,59.61
2023-05-06T08:03:43.512Z,59.94
2023-05-06T08:06:10.175Z,59.85
2023-05-06T08:08:36.743Z,59.79
2023-05-06T08:11:03.299Z,59.84
2023-05-06T08:13:30.521Z,59.84
2023-05-06T08:15:57.119Z,59.92
2023-05-06T08:18:23.758Z,59.92
2023-05-06T08:20:51.228Z,59.55
2023-05-06T08:23:17.886Z,59.85
2023-05-06T08:25:44.378Z,59.97
2023-05-06T08:28:10.920Z,60.54
2023-05-06T08:30:37.519Z,60.65
2023-05-06T08:33:04.084Z,60.88
2023-05-06T08:35:30.722Z,60.70
2023-05-06T08:37:57.232Z,61.10
2023-05-06T08:40:26.970Z,60.83
2023-05-06T08:42:56.102Z,60.84
2023-05-06T08:45:23.287Z,61.21
2023-05-06T08:47:49.889Z,60.48
2023-05-06T08:50:16.628Z,60.42
2023-05-06T08:52:43.575Z,59.84
2023-05-06T08:55:10.472Z,59.88
2023-05-06T08:57:37.604Z,59.83
2023-05-06T09:00:04.967Z,59.81
2023-05-06T09:02:31.624Z,59.61
2023-05-06T09:04:59.653Z,59.43
2023-05-06T09:07:26.221Z,59.25
2023-05-06T09:09:52.702Z,58.90
2023-05-06T09:12:19.350Z,59.21
2023-05-06T09:14:50.234Z,59.52
2023-05-06T09:17:26.597Z,59.29
2023-05-06T09:19:54.851Z,59.27
2023-05-06T09:22:22.703Z,59.42
2023-05-06T09:25:07.619Z,59.09
2023-05-06T09:27:36.622Z,58.83
2023-05-06T09:30:08.345Z,58.58
2023-05-06T09:32:37.459Z,58.36
2023-05-06T09:35:07.330Z,58.33
2023-05-06T09:37:34.020Z,58.17
2023-05-06T09:40:01.155Z,58.20
2023-05-06T09:42:29.715Z,58.26
2023-05-06T09:45:02.487Z,58.13
2023-05-06T09:47:34.065Z,58.32
2023-05-06T09:50:02.281Z,58.50
2023-05-06T09:52:29.777Z,58.17
2023-05-06T09:54:57.271Z,58.40
2023-05-06T09:57:24.260Z,58.48
2023-05-06T09:59:54.032Z,58.13
2023-05-06T10:02:23.197Z,58.02
2023-05-06T10:04:51.361Z,58.24
2023-05-06T10:07:22.757Z,58.12
2023-05-06T10:09:51.337Z,58.31
2023-05-06T10:12:19.033Z,58.15
2023-05-06T10:14:45.533Z,58.23
2023-05-06T10:17:12.880Z,58.27
2023-05-06T10:19:41.879Z,58.04
2023-05-06T10:22:27.223Z,58.13
2023-05-06T10:25:05.800Z,57.97
2023-05-06T10:27:39.576Z,57.83
2023-05-06T10:30:09.483Z,57.90
2023-05-06T10:32:41.871Z,57.93
2023-05-06T10:35:35.898Z,57.58
2023-05-06T10:38:05.277Z,57.50
2023-05-06T10:40:32.214Z,57.44
2023-05-06T10:43:30.909Z,57.32
2023-05-06T10:46:11.428Z,57.31
2023-05-06T10:48:40.595Z,57.37
2023-05-06T10:51:16.538Z,57.28
2023-05-06T10:54:03.749Z,57.20
2023-05-06T10:56:34.220Z,57.36
2023-05-06T10:59:09.991Z,57.13
2023-05-06T11:01:37.989Z,57.11
2023-05-06T11:04:09.746Z,56.97
2023-05-06T11:06:43.029Z,57.06
2023-05-06T11:09:27.754Z,56.76
2023-05-06T11:12:04.628Z,56.77
2023-05-06T11:14:35.791Z,56.73
2023-05-06T11:17:04.955Z,56.52
2023-05-06T11:19:41.406Z,56.67
2023-05-06T11:22:08.011Z,56.35
2023-05-06T11:24:43.057Z,56.26
2023-05-06T11:27:11.117Z,56.21
2023-05-06T11:29:38.096Z,56.21
2023-05-06T11:32:07.640Z,56.20
2023-05-06T11:34:35.474Z,56.02
2023-05-06T11:37:04.346Z,56.06
2023-05-06T11:39:39.095Z,55.75
2023-05-06T11:42:08.554Z,55.82
2023-05-06T11:44:37.586Z,55.90
2023-05-06T11:47:08.450Z,55.58
2023-05-06T11:49:40.406Z,55.54
2023-05-06T11:52:09.365Z,55.67
2023-05-06T11:54:38.722Z,55.50
2023-05-06T11:57:05.352Z,55.52
2023-05-06T11:59:33.855Z,55.33
2023-05-06T12:02:03.159Z,55.27
2023-05-06T12:04:44.242Z,55.44
2023-05-06T12:07:13.249Z,55.18
2023-05-06T12:09:42.902Z,55.20
2023-05-06T12:12:10.488Z,54.92
2023-05-06T12:14:37.915Z,54.84
2023-05-06T12:17:05.445Z,54.77
2023-05-06T12:19:32.573Z,54.52
2023-05-06T12:22:19.388Z,54.35
2023-05-06T12:24:46.936Z,54.36
2023-05-06T12:27:13.593Z,54.44
2023-05-06T12:29:40.391Z,54.08
2023-05-06T12:32:11.505Z,54.28
2023-05-06T12:34:40.084Z,54.30
2023-05-06T12:37:07.550Z,54.03
2023-05-06T12:39:39.280Z,54.07
2023-05-06T12:42:06.679Z,53.88
2023-05-06T12:44:37.648Z,53.95
2023-05-06T12:47:09.925Z,53.91
2023-05-06T12:49:58.193Z,53.74
2023-05-06T12:52:27.691Z,53.32
2023-05-06T12:54:54.243Z,53.03
2023-05-06T12:57:20.974Z,53.01
2023-05-06T12:59:48.399Z,52.80
2023-05-06T13:02:15.461Z,53.08
2023-05-06T13:04:42.492Z,53.09
2023-05-06T13:07:09.023Z,52.80
2023-05-06T13:09:35.585Z,52.78
2023-05-06T13:12:03.060Z,52.70
2023-05-06T13:14:29.538Z,52.54
2023-05-06T13:16:56.367Z,52.42
2023-05-06T13:19:32.208Z,50.97
2023-05-06T13:22:00.459Z,49.86
2023-05-06T13:24:27.278Z,48.71
2023-05-06T13:26:53.864Z,47.72
2023-05-06T13:29:20.407Z,47.20
2023-05-06T13:31:46.987Z,46.42
2023-05-06T13:34:13.466Z,45.10
2023-05-06T13:36:39.956Z,44.02
2023-05-06T13:39:06.463Z,45.17
2023-05-06T13:41:33.038Z,45.11
2023-05-06T13:43:59.557Z,42.87
2023-05-06T13:46:27.280Z,44.82
2023-05-06T13:48:54.006Z,44.18
2023-05-06T13:51:20.630Z,44.35
2023-05-06T13:53:47.138Z,43.31
2023-05-06T13:56:13.715Z,40.92
2023-05-06T13:58:40.424Z,43.14
2023-05-06T14:01:07.253Z,42.58
2023-05-06T14:03:33.768Z,41.88
2023-05-06T14:06:01.277Z,43.66
2023-05-06T14:08:27.795Z,44.53
2023-05-06T14:10:54.280Z,44.78
2023-05-06T14:13:20.930Z,45.36
2023-05-06T14:15:47.598Z,45.65
2023-05-06T14:18:14.207Z,46.15
2023-05-06T14:20:41.273Z,45.86
2023-05-06T14:23:07.814Z,45.93
2023-05-06T14:25:34.363Z,46.23
2023-05-06T14:28:00.957Z,46.49
2023-05-06T14:30:27.651Z,46.53
2023-05-06T14:32:54.345Z,46.75
2023-05-06T14:35:21.062Z,47.07
2023-05-06T14:37:47.683Z,47.13
2023-05-06T14:40:15.614Z,47.02
2023-05-06T14:42:42.173Z,47.48
2023-05-06T14:45:09.243Z,47.43
2023-05-06T14:47:35.947Z,47.54
2023-05-06T14:50:02.612Z,47.59
2023-05-06T14:52:29.105Z,47.43
2023-05-06T14:54:55.598Z,47.32
2023-05-06T14:57:22.458Z,47.39
2023-05-06T14:59:50.330Z,47.33
2023-05-06T15:02:16.815Z,47.44
2023-05-06T15:04:43.431Z,47.44
2023-05-06T15:07:09.939Z,47.47
2023-05-06T15:09:39.478Z,47.90
2023-05-06T15:12:06.799Z,47.58
2023-05-06T15:14:33.325Z,47.64
2023-05-06T15:16:59.892Z,47.53
2023-05-06T15:19:26.529Z,47.36
2023-05-06T15:21:52.995Z,47.55
2023-05-06T15:24:19.457Z,47.46
2023-05-06T15:26:46.368Z,47.91
2023-05-06T15:29:13.036Z,47.75
2023-05-06T15:31:40.883Z,47.54
2023-05-06T15:34:09.673Z,47.56
2023-05-06T15:36:36.506Z,47.39
2023-05-06T15:39:03.486Z,48.91
2023-05-06T15:41:34.572Z,51.00
2023-05-06T15:44:02.500Z,50.26
2023-05-06T15:46:30.596Z,49.92
2023-05-06T15:49:12.832Z,49.55
2023-05-06T15:51:44.063Z,49.13
2023-05-06T15:54:10.564Z,49.07
2023-05-06T15:56:40.892Z,48.78
2023-05-06T15:59:08.368Z,48.76
2023-05-06T16:02:04.861Z,48.75
2023-05-06T16:04:21.598Z,48.79
2023-05-06T16:06:48.441Z,48.60
2023-05-06T16:09:15.009Z,48.57
2023-05-06T16:11:41.512Z,48.44
2023-05-06T16:14:07.997Z,48.43
2023-05-06T16:16:34.636Z,48.29
2023-05-06T16:19:01.327Z,48.51
2023-05-06T16:21:28.671Z,48.04
2023-05-06T16:23:55.349Z,48.27
2023-05-06T16:26:22.131Z,48.23
2023-05-06T16:28:48.663Z,48.29
2023-05-06T16:31:15.325Z,48.26
2023-05-06T16:33:41.855Z,48.14
2023-05-06T16:36:08.857Z,47.93
2023-05-06T16:38:35.327Z,47.93
2023-05-06T16:41:01.894Z,47.85
2023-05-06T16:43:28.369Z,47.79
2023-05-06T16:45:54.866Z,47.98
2023-05-06T16:48:21.491Z,47.93
2023-05-06T16:50:48.037Z,47.81
2023-05-06T16:53:15.820Z,48.03
2023-05-06T16:55:49.446Z,47.99
2023-05-06T16:58:15.914Z,48.04
2023-05-06T17:00:42.512Z,48.05
2023-05-06T17:03:09.132Z,48.11
2023-05-06T17:05:36.442Z,48.14
2023-05-06T17:08:07.110Z,48.15
2023-05-06T17:10:33.760Z,48.19
2023-05-06T17:13:00.402Z,48.29
2023-05-06T17:15:28.342Z,48.45
2023-05-06T17:17:54.907Z,48.42
2023-05-06T17:20:22.684Z,48.51
2023-05-06T17:22:49.753Z,48.37
2023-05-06T17:25:16.454Z,48.37
2023-05-06T17:27:43.117Z,48.44
2023-05-06T17:30:09.943Z,48.56
2023-05-06T17:32:36.684Z,48.62
2023-05-06T17:35:03.486Z,48.42
2023-05-06T17:37:31.254Z,48.41
2023-05-06T17:39:57.900Z,48.55
2023-05-06T17:42:24.486Z,48.64
2023-05-06T17:44:51.136Z,48.56
2023-05-06T17:47:17.748Z,48.71
2023-05-06T17:49:44.337Z,48.43
2023-05-06T17:52:10.895Z,48.76
2023-05-06T17:54:38.316Z,48.78
2023-05-06T17:57:04.808Z,48.87
2023-05-06T17:59:31.328Z,48.87
2023-05-06T18:01:57.941Z,48.71
2023-05-06T18:04:24.494Z,48.97
2023-05-06T18:06:51.293Z,48.82
2023-05-06T18:09:17.802Z,48.72
2023-05-06T18:11:44.626Z,48.96
2023-05-06T18:14:11.563Z,49.06
2023-05-06T18:16:38.446Z,49.22
2023-05-06T18:19:05.266Z,49.09
2023-05-06T18:21:33.992Z,49.35
2023-05-06T18:24:10.270Z,49.04
2023-05-06T18:26:45.244Z,49.45
2023-05-06T18:29:12.736Z,49.41
2023-05-06T18:31:39.442Z,49.34
2023-05-06T18:34:06.098Z,49.26
2023-05-06T18:36:32.638Z,49.23
2023-05-06T18:38:59.221Z,49.25
2023-05-06T18:41:25.896Z,49.24
2023-05-06T18:43:52.464Z,49.30
2023-05-06T18:46:19.192Z,49.38
2023-05-06T18:48:45.862Z,49.22
2023-05-06T18:51:14.034Z,49.29
2023-05-06T18:53:41.337Z,49.28
2023-05-06T18:56:08.780Z,49.47
2023-05-06T18:58:39.342Z,49.48
2023-05-06T19:01:09.870Z,49.53
2023-05-06T19:03:37.529Z,49.39
2023-05-06T19:06:07.615Z,49.44
2023-05-06T19:08:34.156Z,49.47
2023-05-06T19:11:01.347Z,49.47
2023-05-06T19:13:28.684Z,49.35
2023-05-06T19:15:57.076Z,49.50
2023-05-06T19:18:23.618Z,49.72
2023-05-06T19:20:50.119Z,49.65
2023-05-06T19:23:16.597Z,49.59
2023-05-06T19:25:43.086Z,49.82
2023-05-06T19:28:09.668Z,49.85
2023-05-06T19:30:36.413Z,49.78
2023-05-06T19:33:03.888Z,49.92
2023-05-06T19:35:30.439Z,50.00
2023-05-06T19:37:57.345Z,50.00
2023-05-06T19:40:23.865Z,50.14
2023-05-06T19:42:51.334Z,50.05
2023-05-06T19:45:19.103Z,50.02
2023-05-06T19:47:46.226Z,50.14
2023-05-06T19:50:13.240Z,50.08
2023-05-06T19:52:40.213Z,50.12
2023-05-06T19:55:07.322Z,50.19
2023-05-06T19:57:34.073Z,50.27
2023-05-06T20:00:05.171Z,50.07
2023-05-06T20:02:32.881Z,50.03
2023-05-06T20:05:00.619Z,50.12
2023-05-06T20:07:27.347Z,50.12
2023-05-06T20:09:55.515Z,50.22
2023-05-06T20:12:23.206Z,50.30
2023-05-06T20:14:49.885Z,50.22
2023-05-06T20:17:16.884Z,50.18
2023-05-06T20:19:43.961Z,50.29
2023-05-06T20:22:10.503Z,50.42
2023-05-06T20:24:37.666Z,50.46
2023-05-06T20:27:04.164Z,50.39
2023-05-06T20:29:30.863Z,50.59
2023-05-06T20:31:57.574Z,50.33
2023-05-06T20:34:24.204Z,50.38
2023-05-06T20:36:51.542Z,50.40
2023-05-06T20:39:18.085Z,50.34
2023-05-06T20:41:44.647Z,50.29
2023-05-06T20:44:14.061Z,50.42
2023-05-06T20:46:40.645Z,50.33
2023-05-06T20:49:07.713Z,50.30
2023-05-06T20:51:34.379Z,50.72
2023-05-06T20:54:01.188Z,50.47
2023-05-06T20:56:28.287Z,50.68
2023-05-06T20:58:55.967Z,51.18
2023-05-06T21:01:24.270Z,51.35
2023-05-06T21:03:51.679Z,51.59
2023-05-06T21:06:18.970Z,51.54
2023-05-06T21:08:46.536Z,51.65
2023-05-06T21:11:13.022Z,51.65
2023-05-06T21:13:40.198Z,51.49
2023-05-06T21:16:06.712Z,51.75
2023-05-06T21:18:33.309Z,51.67
2023-05-06T21:21:00.041Z,51.82
2023-05-06T21:23:26.611Z,51.62
2023-05-06T21:25:53.122Z,51.90
2023-05-06T21:28:19.660Z,51.93
2023-05-06T21:30:46.265Z,51.78
2023-05-06T21:33:12.774Z,52.07
2023-05-06T21:35:39.299Z,52.02
2023-05-06T21:38:05.898Z,52.02
2023-05-06T21:40:32.463Z,52.20
2023-05-06T21:42:58.971Z,52.32
2023-05-06T21:45:26.456Z,52.47
2023-05-06T21:47:52.998Z,52.44
2023-05-06T21:50:19.749Z,52.41
2023-05-06T21:52:46.233Z,52.40
2023-05-06T21:55:13.055Z,52.33
2023-05-06T21:57:39.828Z,52.60
2023-05-06T22:00:11.761Z,52.52
2023-05-06T22:02:39.928Z,52.72
2023-05-06T22:05:08.004Z,52.74
2023-05-06T22:07:35.753Z,52.82
2023-05-06T22:10:02.305Z,52.65
2023-05-06T22:12:28.830Z,52.72
2023-05-06T22:14:55.342Z,52.60
2023-05-06T22:17:22.266Z,52.61
2023-05-06T22:19:49.052Z,52.79
2023-05-06T22:22:16.215Z,53.00
2023-05-06T22:24:42.770Z,53.42
2023-05-06T22:27:09.357Z,53.43
2023-05-06T22:29:36.010Z,53.72
2023-05-06T22:32:03.337Z,53.86
2023-05-06T22:34:30.277Z,53.96
2023-05-06T22:36:58.394Z,53.97
2023-05-06T22:39:27.427Z,53.70
2023-05-06T22:41:53.916Z,53.75
2023-05-06T22:44:21.230Z,53.63
2023-05-06T22:46:47.746Z,53.75
2023-05-06T22:49:15.962Z,53.79
2023-05-06T22:51:42.670Z,53.67
2023-05-06T22:54:09.199Z,53.67
2023-05-06T22:56:35.759Z,53.83
2023-05-06T22:59:02.294Z,53.71
2023-05-06T23:01:32.321Z,53.77
2023-05-06T23:03:59.569Z,53.42
2023-05-06T23:06:27.949Z,53.46
2023-05-06T23:08:54.455Z,53.53
2023-05-06T23:11:20.944Z,53.82
2023-05-06T23:13:47.781Z,53.88
2023-05-06T23:16:14.780Z,54.28
2023-05-06T23:18:41.619Z,54.03
2023-05-06T23:21:09.215Z,54.29
2023-05-06T23:23:35.625Z,54.35
2023-05-06T23:26:02.174Z,54.50
2023-05-06T23:28:28.679Z,54.63
2023-05-06T23:30:55.141Z,54.73
2023-05-06T23:33:22.227Z,54.88
2023-05-06T23:35:48.708Z,54.78
2023-05-06T23:38:15.301Z,55.04
2023-05-06T23:40:41.843Z,54.84
2023-05-06T23:43:09.879Z,55.12
2023-05-06T23:45:36.398Z,54.92
2023-05-06T23:48:03.266Z,54.94
2023-05-06T23:50:29.847Z,55.02
2023-05-06T23:52:56.399Z,55.12
2023-05-06T23:55:23.041Z,55.15
2023-05-06T23:57:49.557Z,55.17
